createdAt,value
2023-05-01T00:02:44.975Z,13.41
2023-05-01T00:05:46.489Z,13.46
2023-05-01T00:08:47.912Z,13.48
2023-05-01T00:11:49.291Z,13.52
2023-05-01T00:14:50.711Z,13.53
2023-05-01T00:17:53.941Z,13.55
2023-05-01T00:20:55.564Z,13.58
2023-05-01T00:23:57.287Z,13.58
2023-05-01T00:26:59.017Z,13.56
2023-05-01T00:30:00.481Z,13.59
2023-05-01T00:33:02.039Z,13.60
2023-05-01T00:36:03.732Z,13.57
2023-05-01T00:39:07.593Z,13.57
2023-05-01T00:42:09.076Z,13.56
2023-05-01T00:45:10.758Z,13.55
2023-05-01T00:48:12.462Z,13.54
2023-05-01T00:51:14.213Z,13.48
2023-05-01T00:54:15.809Z,13.41
2023-05-01T00:57:19.525Z,13.38
2023-05-01T01:00:23.235Z,13.35
2023-05-01T01:03:24.698Z,13.33
2023-05-01T01:06:32.282Z,13.25
2023-05-01T01:09:57.727Z,13.17
2023-05-01T01:13:14.166Z,13.03
2023-05-01T01:16:23.303Z,12.99
2023-05-01T01:19:56.225Z,12.97
2023-05-01T01:23:24.456Z,13.02
2023-05-01T01:26:47.501Z,13.04
2023-05-01T01:30:30.735Z,12.95
2023-05-01T01:33:49.112Z,12.83
2023-05-01T01:37:04.758Z,12.75
2023-05-01T01:40:12.801Z,12.70
2023-05-01T01:43:18.834Z,12.68
2023-05-01T01:46:22.486Z,12.66
2023-05-01T01:49:26.487Z,12.66
2023-05-01T01:52:29.998Z,12.65
2023-05-01T01:55:34.964Z,12.63
2023-05-01T01:58:38.698Z,12.60
2023-05-01T02:01:41.982Z,12.58
2023-05-01T02:04:45.600Z,12.59
2023-05-01T02:07:49.922Z,12.54
2023-05-01T02:10:58.394Z,12.50
2023-05-01T02:14:03.602Z,12.48
2023-05-01T02:17:06.282Z,12.38
2023-05-01T02:20:12.545Z,12.41
2023-05-01T02:23:14.968Z,12.47
2023-05-01T02:26:18.140Z,12.46
2023-05-01T02:29:19.528Z,12.47
2023-05-01T02:32:21.027Z,12.50
2023-05-01T02:35:23.233Z,12.52
2023-05-01T02:38:24.753Z,12.55
2023-05-01T02:41:28.187Z,12.50
2023-05-01T02:44:36.058Z,12.55
2023-05-01T02:47:42.377Z,12.58
2023-05-01T02:50:44.842Z,12.59
2023-05-01T02:53:47.000Z,12.57
2023-05-01T02:56:54.960Z,12.55
2023-05-01T02:59:56.662Z,12.55
2023-05-01T03:02:58.396Z,12.55
2023-05-01T03:06:00.010Z,12.57
2023-05-01T03:09:01.711Z,12.56
2023-05-01T03:12:03.717Z,12.59
2023-05-01T03:15:05.850Z,12.62
2023-05-01T03:18:07.439Z,12.59
2023-05-01T03:21:09.226Z,12.60
2023-05-01T03:24:12.203Z,12.60
2023-05-01T03:27:13.983Z,12.58
2023-05-01T03:30:15.841Z,12.61
2023-05-01T03:33:17.435Z,12.61
2023-05-01T03:36:19.068Z,12.60
2023-05-01T03:39:22.703Z,12.55
2023-05-01T03:42:44.405Z,12.55
2023-05-01T03:45:53.755Z,12.55
2023-05-01T03:48:55.538Z,12.54
2023-05-01T03:51:57.078Z,12.60
2023-05-01T03:54:58.577Z,12.55
2023-05-01T03:58:08.102Z,12.58
2023-05-01T04:01:09.679Z,12.52
2023-05-01T04:04:17.680Z,12.49
2023-05-01T04:07:24.212Z,12.49
2023-05-01T04:10:26.372Z,12.52
2023-05-01T04:13:32.252Z,12.48
2023-05-01T04:16:34.028Z,12.50
2023-05-01T04:19:36.083Z,12.51
2023-05-01T04:22:37.715Z,12.48
2023-05-01T04:25:39.145Z,12.49
2023-05-01T04:28:46.422Z,12.50
2023-05-01T04:31:50.720Z,12.50
2023-05-01T04:34:52.141Z,12.41
2023-05-01T04:37:53.687Z,12.42
2023-05-01T04:40:56.213Z,12.42
2023-05-01T04:43:58.075Z,12.47
2023-05-01T04:47:02.461Z,12.52
2023-05-01T04:50:04.384Z,12.53
2023-05-01T04:53:06.534Z,12.53
2023-05-01T04:56:09.947Z,12.56
2023-05-01T04:59:11.823Z,12.59
2023-05-01T05:02:13.253Z,12.61
2023-05-01T05:05:14.826Z,12.59
2023-05-01T05:08:16.260Z,12.64
2023-05-01T05:11:29.522Z,12.63
2023-05-01T05:14:33.416Z,12.62
2023-05-01T05:17:35.307Z,12.65
2023-05-01T05:20:40.094Z,12.65
2023-05-01T05:23:41.478Z,12.71
2023-05-01T05:26:42.921Z,12.75
2023-05-01T05:29:44.547Z,12.78
2023-05-01T05:32:47.215Z,12.85
2023-05-01T05:35:49.126Z,12.88
2023-05-01T05:38:50.870Z,12.89
2023-05-01T05:41:53.988Z,12.91
2023-05-01T05:44:55.891Z,12.91
2023-05-01T05:47:57.477Z,12.98
2023-05-01T05:51:00.845Z,13.11
2023-05-01T05:54:02.592Z,13.17
2023-05-01T05:57:08.116Z,13.15
2023-05-01T06:00:14.174Z,13.17
2023-05-01T06:03:22.323Z,13.21
2023-05-01T06:06:27.584Z,13.26
2023-05-01T06:09:29.422Z,13.29
2023-05-01T06:12:31.814Z,13.41
2023-05-01T06:15:34.178Z,13.40
2023-05-01T06:18:36.552Z,13.44
2023-05-01T06:21:38.041Z,13.48
2023-05-01T06:24:39.837Z,13.54
2023-05-01T06:27:42.918Z,13.57
2023-05-01T06:30:44.719Z,13.64
2023-05-01T06:33:47.119Z,13.67
2023-05-01T06:36:59.712Z,13.72
2023-05-01T06:40:01.195Z,13.70
2023-05-01T06:43:03.630Z,13.70
2023-05-01T06:46:05.012Z,13.70
2023-05-01T06:49:06.698Z,13.64
2023-05-01T06:52:08.238Z,13.54
2023-05-01T06:55:09.819Z,13.54
2023-05-01T06:58:22.482Z,13.56
2023-05-01T07:01:25.972Z,13.56
2023-05-01T07:04:27.761Z,13.63
2023-05-01T07:07:30.802Z,13.70
2023-05-01T07:10:32.345Z,13.77
2023-05-01T07:13:33.751Z,13.82
2023-05-01T07:16:35.185Z,13.87
2023-05-01T07:19:36.645Z,13.82
2023-05-01T07:22:38.114Z,13.81
2023-05-01T07:25:42.750Z,13.83
2023-05-01T07:28:44.140Z,13.88
2023-05-01T07:31:46.257Z,13.86
2023-05-01T07:34:47.982Z,13.83
2023-05-01T07:37:53.403Z,13.87
2023-05-01T07:40:54.951Z,13.90
2023-05-01T07:43:58.919Z,13.79
2023-05-01T07:47:05.552Z,13.82
2023-05-01T07:50:11.815Z,13.81
2023-05-01T07:53:14.510Z,13.74
2023-05-01T07:56:16.099Z,13.74
2023-05-01T07:59:17.625Z,13.81
2023-05-01T08:02:19.876Z,13.81
2023-05-01T08:05:21.296Z,13.82
2023-05-01T08:08:22.992Z,13.85
2023-05-01T08:11:25.033Z,13.89
2023-05-01T08:14:26.638Z,13.95
2023-05-01T08:17:28.053Z,13.96
2023-05-01T08:20:29.606Z,13.95
2023-05-01T08:23:31.002Z,13.97
2023-05-01T08:26:32.952Z,14.03
2023-05-01T08:29:34.345Z,14.07
2023-05-01T08:32:35.780Z,14.09
2023-05-01T08:35:37.316Z,14.15
2023-05-01T08:38:38.756Z,14.22
2023-05-01T08:41:40.265Z,14.28
2023-05-01T08:44:42.260Z,14.35
2023-05-01T08:47:44.811Z,14.44
2023-05-01T08:50:47.852Z,14.43
2023-05-01T08:53:52.062Z,14.55
2023-05-01T08:56:53.807Z,14.61
2023-05-01T08:59:57.996Z,14.70
2023-05-01T09:03:02.658Z,14.88
2023-05-01T09:06:04.538Z,15.08
2023-05-01T09:09:06.352Z,15.25
2023-05-01T09:12:21.825Z,15.56
2023-05-01T09:15:28.213Z,15.63
2023-05-01T09:18:31.078Z,15.79
2023-05-01T09:21:32.741Z,15.92
2023-05-01T09:24:34.172Z,15.86
2023-05-01T09:27:37.552Z,15.61
2023-05-01T09:30:39.336Z,15.60
2023-05-01T09:33:54.718Z,15.67
2023-05-01T09:36:56.443Z,15.76
2023-05-01T09:40:27.938Z,15.79
2023-05-01T09:43:30.272Z,15.84
2023-05-01T09:46:42.722Z,15.91
2023-05-01T09:49:46.358Z,15.88
2023-05-01T09:52:50.075Z,16.08
2023-05-01T09:56:01.676Z,16.23
2023-05-01T09:59:20.612Z,16.24
2023-05-01T10:02:29.567Z,16.33
2023-05-01T10:05:44.016Z,16.38
2023-05-01T10:08:47.373Z,16.60
2023-05-01T10:11:56.009Z,16.57
2023-05-01T10:15:05.494Z,16.69
2023-05-01T10:18:14.401Z,17.05
2023-05-01T10:21:16.836Z,17.18
2023-05-01T10:24:18.398Z,17.35
2023-05-01T10:27:22.266Z,17.40
2023-05-01T10:30:26.155Z,17.49
2023-05-01T10:33:28.410Z,17.61
2023-05-01T10:36:46.459Z,17.77
2023-05-01T10:39:47.879Z,17.67
2023-05-01T10:43:15.924Z,17.86
2023-05-01T10:46:18.998Z,17.80
2023-05-01T10:49:21.526Z,17.92
2023-05-01T10:52:22.945Z,17.99
2023-05-01T10:55:35.161Z,18.10
2023-05-01T10:58:36.615Z,18.10
2023-05-01T11:01:43.136Z,18.03
2023-05-01T11:04:50.850Z,18.00
2023-05-01T11:08:34.027Z,17.94
2023-05-01T11:11:35.368Z,17.61
2023-05-01T11:15:05.765Z,17.66
2023-05-01T11:18:07.619Z,17.63
2023-05-01T11:21:09.456Z,17.55
2023-05-01T11:24:11.366Z,17.71
2023-05-01T11:27:16.307Z,17.82
2023-05-01T11:30:18.071Z,18.00
2023-05-01T11:33:22.662Z,17.91
2023-05-01T11:36:25.165Z,17.86
2023-05-01T11:39:26.763Z,17.83
2023-05-01T11:42:28.150Z,17.97
2023-05-01T11:45:30.494Z,18.10
2023-05-01T11:48:32.695Z,18.27
2023-05-01T11:51:35.118Z,18.32
2023-05-01T11:54:47.990Z,18.49
2023-05-01T11:57:53.414Z,18.58
2023-05-01T12:00:55.146Z,18.20
2023-05-01T12:03:57.309Z,17.88
2023-05-01T12:06:59.223Z,17.72
2023-05-01T12:10:00.782Z,17.96
2023-05-01T12:13:04.121Z,18.22
2023-05-01T12:16:05.873Z,18.32
2023-05-01T12:19:08.446Z,18.48
2023-05-01T12:22:09.966Z,18.49
2023-05-01T12:25:11.531Z,18.45
2023-05-01T12:28:14.461Z,18.23
2023-05-01T12:31:17.146Z,18.35
2023-05-01T12:34:29.023Z,18.17
2023-05-01T12:37:32.237Z,18.19
2023-05-01T12:40:33.929Z,18.13
2023-05-01T12:43:37.253Z,18.22
2023-05-01T12:46:41.940Z,18.28
2023-05-01T12:49:44.611Z,18.26
2023-05-01T12:52:46.045Z,18.25
2023-05-01T12:55:52.949Z,18.35
2023-05-01T12:58:55.220Z,18.36
2023-05-01T13:02:02.071Z,18.36
2023-05-01T13:05:11.672Z,18.54
2023-05-01T13:08:13.108Z,18.84
2023-05-01T13:11:16.768Z,18.80
2023-05-01T13:14:19.295Z,18.66
2023-05-01T13:17:31.316Z,18.79
2023-05-01T13:20:33.089Z,19.06
2023-05-01T13:23:36.310Z,18.85
2023-05-01T13:26:38.176Z,18.84
2023-05-01T13:29:41.593Z,18.80
2023-05-01T13:32:43.104Z,18.92
2023-05-01T13:35:44.573Z,19.12
2023-05-01T13:38:51.378Z,19.07
2023-05-01T13:41:53.551Z,18.90
2023-05-01T13:44:56.562Z,18.77
2023-05-01T13:47:58.163Z,18.81
2023-05-01T13:50:59.864Z,18.81
2023-05-01T13:54:03.307Z,18.67
2023-05-01T13:57:05.091Z,18.80
2023-05-01T14:00:08.971Z,18.81
2023-05-01T14:03:18.606Z,18.86
2023-05-01T14:06:21.007Z,18.94
2023-05-01T14:09:22.882Z,19.01
2023-05-01T14:12:30.464Z,19.20
2023-05-01T14:15:33.915Z,18.98
2023-05-01T14:18:36.426Z,19.04
2023-05-01T14:21:42.432Z,19.12
2023-05-01T14:24:44.188Z,19.27
2023-05-01T14:27:45.670Z,19.32
2023-05-01T14:30:49.039Z,19.38
2023-05-01T14:33:57.757Z,19.51
2023-05-01T14:36:59.306Z,19.82
2023-05-01T14:40:03.343Z,20.46
2023-05-01T14:43:05.948Z,20.63
2023-05-01T14:46:07.399Z,20.36
2023-05-01T14:49:12.226Z,20.12
2023-05-01T14:52:20.200Z,20.33
2023-05-01T14:55:28.857Z,20.69
2023-05-01T14:58:30.330Z,20.97
2023-05-01T15:01:32.261Z,21.01
2023-05-01T15:04:33.931Z,20.65
2023-05-01T15:07:35.466Z,20.29
2023-05-01T15:10:38.471Z,20.70
2023-05-01T15:13:41.267Z,20.95
2023-05-01T15:16:43.216Z,20.69
2023-05-01T15:19:44.879Z,20.57
2023-05-01T15:22:46.352Z,20.43
2023-05-01T15:25:50.398Z,20.31
2023-05-01T15:28:52.137Z,20.33
2023-05-01T15:32:04.545Z,20.02
2023-05-01T15:35:12.835Z,19.89
2023-05-01T15:38:14.571Z,19.96
2023-05-01T15:41:18.292Z,19.91
2023-05-01T15:44:21.277Z,20.20
2023-05-01T15:47:22.726Z,20.43
2023-05-01T15:50:24.242Z,20.17
2023-05-01T15:53:25.695Z,19.93
2023-05-01T15:56:27.560Z,19.78
2023-05-01T15:59:29.321Z,19.50
2023-05-01T16:02:32.580Z,19.47
2023-05-01T16:05:36.633Z,19.46
2023-05-01T16:08:39.039Z,19.42
2023-05-01T16:11:40.569Z,19.25
2023-05-01T16:14:42.257Z,19.20
2023-05-01T16:17:45.179Z,19.16
2023-05-01T16:20:46.658Z,19.19
2023-05-01T16:23:48.574Z,19.27
2023-05-01T16:26:50.443Z,19.19
2023-05-01T16:29:52.448Z,19.05
2023-05-01T16:32:53.912Z,18.96
2023-05-01T16:35:55.385Z,18.80
2023-05-01T16:38:56.859Z,18.71
2023-05-01T16:41:59.314Z,18.69
2023-05-01T16:45:01.687Z,18.67
2023-05-01T16:48:03.507Z,18.60
2023-05-01T16:51:06.477Z,18.50
2023-05-01T16:54:08.317Z,18.53
2023-05-01T16:57:09.993Z,18.38
2023-05-01T17:00:11.848Z,18.26
2023-05-01T17:03:15.959Z,18.22
2023-05-01T17:06:18.233Z,18.14
2023-05-01T17:09:19.889Z,18.14
2023-05-01T17:12:29.580Z,18.11
2023-05-01T17:15:30.948Z,18.11
2023-05-01T17:18:32.330Z,18.07
2023-05-01T17:21:34.085Z,18.04
2023-05-01T17:24:36.189Z,17.94
2023-05-01T17:27:37.725Z,17.87
2023-05-01T17:30:39.186Z,17.70
2023-05-01T17:33:40.643Z,17.72
2023-05-01T17:36:42.631Z,17.75
2023-05-01T17:39:44.039Z,17.68
2023-05-01T17:42:45.482Z,17.68
2023-05-01T17:45:47.861Z,17.55
2023-05-01T17:48:49.323Z,17.61
2023-05-01T17:51:50.820Z,17.55
2023-05-01T17:54:52.372Z,17.48
2023-05-01T17:57:53.774Z,17.35
2023-05-01T18:00:57.000Z,17.17
2023-05-01T18:04:00.504Z,17.03
2023-05-01T18:07:01.958Z,17.02
2023-05-01T18:10:03.916Z,16.89
2023-05-01T18:13:05.323Z,16.88
2023-05-01T18:16:09.030Z,16.79
2023-05-01T18:19:10.463Z,16.72
2023-05-01T18:22:11.854Z,16.66
2023-05-01T18:25:16.074Z,16.59
2023-05-01T18:28:18.929Z,16.56
2023-05-01T18:31:20.453Z,16.37
2023-05-01T18:34:21.912Z,16.22
2023-05-01T18:37:25.660Z,16.15
2023-05-01T18:40:27.245Z,16.01
2023-05-01T18:43:28.731Z,16.02
2023-05-01T18:46:30.297Z,16.01
2023-05-01T18:49:31.725Z,15.92
2023-05-01T18:52:33.401Z,15.95
2023-05-01T18:55:35.225Z,15.80
2023-05-01T18:58:36.594Z,15.70
2023-05-01T19:01:38.178Z,15.72
2023-05-01T19:04:55.933Z,15.72
2023-05-01T19:08:01.674Z,15.67
2023-05-01T19:11:04.510Z,15.62
2023-05-01T19:14:07.492Z,15.60
2023-05-01T19:17:08.984Z,15.58
2023-05-01T19:20:10.743Z,15.59
2023-05-01T19:23:12.168Z,15.62
2023-05-01T19:26:13.675Z,15.65
2023-05-01T19:29:15.241Z,15.65
2023-05-01T19:32:17.456Z,15.68
2023-05-01T19:35:18.881Z,15.66
2023-05-01T19:38:20.337Z,15.66
2023-05-01T19:41:21.721Z,15.64
2023-05-01T19:44:23.098Z,15.55
2023-05-01T19:47:25.527Z,15.51
2023-05-01T19:50:28.403Z,15.51
2023-05-01T19:53:31.012Z,15.43
2023-05-01T19:56:32.665Z,15.42
2023-05-01T19:59:38.681Z,15.37
2023-05-01T20:02:41.357Z,15.37
2023-05-01T20:05:42.969Z,15.28
2023-05-01T20:08:44.618Z,15.01
2023-05-01T20:11:46.022Z,14.93
2023-05-01T20:14:47.853Z,14.78
2023-05-01T20:17:52.191Z,14.76
2023-05-01T20:20:53.694Z,14.73
2023-05-01T20:23:55.079Z,14.80
2023-05-01T20:26:58.112Z,14.78
2023-05-01T20:30:00.391Z,14.88
2023-05-01T20:33:01.986Z,14.81
2023-05-01T20:36:03.832Z,14.83
2023-05-01T20:39:05.411Z,14.90
2023-05-01T20:42:06.811Z,14.85
2023-05-01T20:45:08.993Z,14.85
2023-05-01T20:48:11.273Z,14.82
2023-05-01T20:51:13.723Z,14.71
2023-05-01T20:54:15.208Z,14.69
2023-05-01T20:57:16.675Z,14.67
2023-05-01T21:00:18.174Z,14.64
2023-05-01T21:03:19.687Z,14.57
2023-05-01T21:06:21.225Z,14.48
2023-05-01T21:09:22.648Z,14.50
2023-05-01T21:12:24.106Z,14.47
2023-05-01T21:15:26.829Z,14.40
2023-05-01T21:18:33.114Z,14.44
2023-05-01T21:21:35.998Z,14.39
2023-05-01T21:24:39.706Z,14.38
2023-05-01T21:27:43.973Z,14.36
2023-05-01T21:30:47.795Z,14.33
2023-05-01T21:33:49.755Z,14.30
2023-05-01T21:36:51.205Z,14.17
2023-05-01T21:39:52.683Z,14.19
2023-05-01T21:42:54.695Z,14.08
2023-05-01T21:45:56.139Z,14.02
2023-05-01T21:48:57.578Z,14.11
2023-05-01T21:52:00.811Z,14.10
2023-05-01T21:55:04.292Z,14.10
2023-05-01T21:58:05.768Z,14.12
2023-05-01T22:01:09.334Z,14.11
2023-05-01T22:04:17.118Z,14.15
2023-05-01T22:07:18.608Z,14.27
2023-05-01T22:10:20.885Z,14.25
2023-05-01T22:13:22.263Z,14.26
2023-05-01T22:16:23.715Z,14.31
2023-05-01T22:19:25.532Z,14.31
2023-05-01T22:22:26.897Z,14.27
2023-05-01T22:25:28.603Z,14.19
2023-05-01T22:28:29.991Z,14.12
2023-05-01T22:31:31.414Z,14.10
2023-05-01T22:34:32.862Z,14.13
2023-05-01T22:37:34.245Z,14.08
2023-05-01T22:40:35.811Z,14.11
2023-05-01T22:43:37.188Z,14.09
2023-05-01T22:46:38.696Z,14.10
2023-05-01T22:49:40.111Z,14.13
2023-05-01T22:52:41.565Z,14.08
2023-05-01T22:55:42.935Z,13.93
2023-05-01T22:58:44.338Z,13.90
2023-05-01T23:01:46.220Z,13.95
2023-05-01T23:04:47.645Z,14.02
2023-05-01T23:07:49.009Z,14.04
2023-05-01T23:10:50.651Z,14.06
2023-05-01T23:13:52.205Z,14.08
2023-05-01T23:16:53.834Z,14.07
2023-05-01T23:19:58.292Z,14.05
2023-05-01T23:23:05.076Z,14.06
2023-05-01T23:26:06.457Z,13.99
2023-05-01T23:29:07.864Z,13.87
2023-05-01T23:32:18.201Z,13.92
2023-05-01T23:35:24.927Z,14.00
2023-05-01T23:38:26.328Z,14.10
2023-05-01T23:41:28.263Z,14.14
2023-05-01T23:44:30.283Z,14.16
2023-05-01T23:47:31.715Z,14.08
2023-05-01T23:50:33.372Z,14.05
2023-05-01T23:53:34.768Z,14.02
2023-05-01T23:56:36.385Z,14.04
2023-05-01T23:59:37.946Z,14.02
